JBU225 KSLC-KLAX
Flight info
| Callsign | JBU225 |
|---|---|
| Flight time | 1h 43m |
| Altitude | 38000 |
| Route | WINEN LAKRR HAKMN ANJLL4 |
| Aircraft | A320/M-SDE3FGHIRWY/LB1 |
Departure
| Time | 2026-04-21 02:39 |
|---|---|
| Airport | Salt Lake City International Airport (KSLC) |
Arrival
| Time | 2026-04-21 04:22 |
|---|---|
| Airport | Los Angeles International Airport (KLAX) |
| Time | Latitude | Longitude | Altitude | Speed | Heading |
|---|---|---|---|---|---|
| 2026-04-21 02:13 | 40.78937 | -111.99005 | 4235 ft | 0 kts | 175° |
| 2026-04-21 02:30 | 40.78939 | -111.99005 | 4235 ft | 2 kts | 175° |
| 2026-04-21 02:30 | 40.78965 | -111.99007 | 4234 ft | 4 kts | 181° |
| 2026-04-21 02:31 | 40.78991 | -111.99003 | 4234 ft | 4 kts | 199° |
| 2026-04-21 02:31 | 40.79011 | -111.98987 | 4232 ft | 4 kts | 254° |
| 2026-04-21 02:31 | 40.79012 | -111.98980 | 4231 ft | 0 kts | 264° |
| 2026-04-21 02:34 | 40.79011 | -111.99003 | 4233 ft | 4 kts | 264° |
| 2026-04-21 02:34 | 40.79006 | -111.99061 | 4233 ft | 8 kts | 264° |
| 2026-04-21 02:34 | 40.79001 | -111.99136 | 4235 ft | 9 kts | 264° |
| 2026-04-21 02:34 | 40.78995 | -111.99224 | 4235 ft | 10 kts | 266° |
| 2026-04-21 02:35 | 40.79034 | -111.99291 | 4235 ft | 11 kts | 348° |
| 2026-04-21 02:35 | 40.79095 | -111.99341 | 4235 ft | 11 kts | 291° |
| 2026-04-21 02:35 | 40.79135 | -111.99425 | 4235 ft | 12 kts | 344° |
| 2026-04-21 02:35 | 40.79224 | -111.99436 | 4235 ft | 15 kts | 356° |
| 2026-04-21 02:36 | 40.79345 | -111.99449 | 4235 ft | 20 kts | 355° |
| 2026-04-21 02:36 | 40.79505 | -111.99469 | 4235 ft | 26 kts | 355° |
| 2026-04-21 02:36 | 40.79698 | -111.99492 | 4234 ft | 30 kts | 355° |
| 2026-04-21 02:36 | 40.79901 | -111.99517 | 4235 ft | 30 kts | 353° |
| 2026-04-21 02:37 | 40.80110 | -111.99540 | 4235 ft | 31 kts | 355° |
| 2026-04-21 02:37 | 40.80325 | -111.99563 | 4235 ft | 32 kts | 355° |
| 2026-04-21 02:37 | 40.80547 | -111.99588 | 4235 ft | 32 kts | 355° |
| 2026-04-21 02:37 | 40.80735 | -111.99612 | 4234 ft | 16 kts | 351° |
| 2026-04-21 02:38 | 40.80815 | -111.99700 | 4234 ft | 17 kts | 269° |
| 2026-04-21 02:38 | 40.80769 | -111.99849 | 4234 ft | 19 kts | 247° |
| 2026-04-21 02:38 | 40.80665 | -111.99915 | 4235 ft | 19 kts | 175° |
| 2026-04-21 02:38 | 40.80340 | -111.99873 | 4236 ft | 88 kts | 175° |
| 2026-04-21 02:39 | 40.79467 | -111.99770 | 4233 ft | 159 kts | 175° |
| 2026-04-21 02:39 | 40.78233 | -111.99613 | 4511 ft | 194 kts | 173° |
| 2026-04-21 02:39 | 40.76782 | -111.99421 | 5036 ft | 222 kts | 174° |
| 2026-04-21 02:39 | 40.75147 | -111.99183 | 5626 ft | 251 kts | 173° |
| 2026-04-21 02:40 | 40.73317 | -111.98891 | 6245 ft | 273 kts | 172° |
| 2026-04-21 02:40 | 40.71402 | -111.98504 | 7022 ft | 275 kts | 173° |
| 2026-04-21 02:40 | 40.69530 | -111.98216 | 7784 ft | 275 kts | 175° |
| 2026-04-21 02:40 | 40.67600 | -111.97970 | 8664 ft | 276 kts | 176° |
| 2026-04-21 02:41 | 40.65705 | -111.97744 | 9484 ft | 278 kts | 176° |
| 2026-04-21 02:41 | 40.63770 | -111.97511 | 10264 ft | 282 kts | 176° |
| 2026-04-21 02:41 | 40.61735 | -111.97268 | 10522 ft | 305 kts | 177° |
| 2026-04-21 02:41 | 40.59572 | -111.97039 | 10972 ft | 317 kts | 177° |
| 2026-04-21 02:42 | 40.57360 | -111.96821 | 11647 ft | 321 kts | 178° |
| 2026-04-21 02:42 | 40.55119 | -111.96605 | 12380 ft | 324 kts | 178° |
| 2026-04-21 02:42 | 40.52855 | -111.96386 | 13116 ft | 328 kts | 178° |
| 2026-04-21 02:42 | 40.50569 | -111.96164 | 13829 ft | 331 kts | 178° |
| 2026-04-21 02:43 | 40.48259 | -111.95939 | 14470 ft | 334 kts | 178° |
| 2026-04-21 02:43 | 40.45932 | -111.95713 | 15097 ft | 337 kts | 178° |
| 2026-04-21 02:43 | 40.43552 | -111.95481 | 15729 ft | 340 kts | 178° |
| 2026-04-21 02:43 | 40.41217 | -111.95255 | 16338 ft | 343 kts | 178° |
| 2026-04-21 02:44 | 40.38822 | -111.95025 | 16975 ft | 346 kts | 178° |
| 2026-04-21 02:44 | 40.36404 | -111.94789 | 17617 ft | 350 kts | 178° |
| 2026-04-21 02:44 | 40.33967 | -111.94554 | 18268 ft | 353 kts | 178° |
| 2026-04-21 02:44 | 40.31504 | -111.94321 | 18815 ft | 357 kts | 179° |
| 2026-04-21 02:45 | 40.29012 | -111.94087 | 19351 ft | 361 kts | 179° |
| 2026-04-21 02:45 | 40.26503 | -111.93976 | 19900 ft | 363 kts | 186° |
| 2026-04-21 02:45 | 40.23980 | -111.94328 | 20438 ft | 366 kts | 189° |
| 2026-04-21 02:45 | 40.21448 | -111.94729 | 20974 ft | 370 kts | 189° |
| 2026-04-21 02:46 | 40.18874 | -111.95138 | 21500 ft | 374 kts | 189° |
| 2026-04-21 02:46 | 40.16275 | -111.95550 | 22021 ft | 378 kts | 189° |
| 2026-04-21 02:46 | 40.13653 | -111.95963 | 22540 ft | 382 kts | 189° |
| 2026-04-21 02:46 | 40.11024 | -111.96371 | 23050 ft | 386 kts | 189° |
| 2026-04-21 02:47 | 40.08336 | -111.96772 | 23555 ft | 390 kts | 189° |
| 2026-04-21 02:47 | 40.05628 | -111.97165 | 23924 ft | 394 kts | 189° |
| 2026-04-21 02:47 | 40.02892 | -111.97559 | 24331 ft | 398 kts | 189° |
| 2026-04-21 02:47 | 40.00132 | -111.97951 | 24762 ft | 401 kts | 189° |
| 2026-04-21 02:48 | 39.97349 | -111.98351 | 25192 ft | 403 kts | 189° |
| 2026-04-21 02:48 | 39.94553 | -111.98756 | 25618 ft | 406 kts | 189° |
| 2026-04-21 02:48 | 39.91733 | -111.99167 | 26038 ft | 409 kts | 189° |
| 2026-04-21 02:48 | 39.88898 | -111.99581 | 26450 ft | 411 kts | 188° |
| 2026-04-21 02:49 | 39.86046 | -111.99998 | 26852 ft | 414 kts | 188° |
| 2026-04-21 02:49 | 39.83167 | -112.00416 | 27248 ft | 417 kts | 188° |
| 2026-04-21 02:49 | 39.80278 | -112.00836 | 27639 ft | 419 kts | 188° |
| 2026-04-21 02:49 | 39.77372 | -112.01259 | 28041 ft | 422 kts | 188° |
| 2026-04-21 02:50 | 39.74446 | -112.01681 | 28429 ft | 424 kts | 188° |
| 2026-04-21 02:50 | 39.71501 | -112.02103 | 28816 ft | 427 kts | 188° |
| 2026-04-21 02:50 | 39.68542 | -112.02528 | 29203 ft | 429 kts | 188° |
| 2026-04-21 02:50 | 39.65562 | -112.02961 | 29585 ft | 432 kts | 188° |
| 2026-04-21 02:51 | 39.62573 | -112.03402 | 29961 ft | 434 kts | 188° |
| 2026-04-21 02:51 | 39.59557 | -112.03845 | 30274 ft | 437 kts | 188° |
| 2026-04-21 02:51 | 39.56525 | -112.04287 | 30587 ft | 440 kts | 188° |
| 2026-04-21 02:51 | 39.53482 | -112.04727 | 30895 ft | 442 kts | 188° |
| 2026-04-21 02:52 | 39.50416 | -112.05167 | 31200 ft | 444 kts | 188° |
| 2026-04-21 02:52 | 39.47337 | -112.05609 | 31498 ft | 446 kts | 188° |
| 2026-04-21 02:52 | 39.44257 | -112.06049 | 31925 ft | 445 kts | 187° |
| 2026-04-21 02:52 | 39.41176 | -112.06484 | 32351 ft | 444 kts | 188° |
| 2026-04-21 02:53 | 39.38062 | -112.06921 | 32761 ft | 444 kts | 187° |
| 2026-04-21 02:53 | 39.35032 | -112.07349 | 33190 ft | 444 kts | 187° |
| 2026-04-21 02:53 | 39.31963 | -112.07784 | 33629 ft | 443 kts | 187° |
| 2026-04-21 02:53 | 39.28905 | -112.08218 | 34043 ft | 442 kts | 187° |
| 2026-04-21 02:54 | 39.25846 | -112.08652 | 34439 ft | 441 kts | 187° |
| 2026-04-21 02:54 | 39.22796 | -112.09083 | 34811 ft | 441 kts | 187° |
| 2026-04-21 02:54 | 39.19753 | -112.09513 | 35174 ft | 440 kts | 187° |
| 2026-04-21 02:54 | 39.16719 | -112.09954 | 35525 ft | 439 kts | 189° |
| 2026-04-21 02:55 | 39.13745 | -112.10805 | 35866 ft | 437 kts | 199° |
| 2026-04-21 02:55 | 39.10930 | -112.12259 | 36198 ft | 435 kts | 208° |
| 2026-04-21 02:55 | 39.08289 | -112.14159 | 36555 ft | 434 kts | 210° |
| 2026-04-21 02:55 | 39.05683 | -112.16073 | 36943 ft | 431 kts | 210° |
| 2026-04-21 02:56 | 39.03081 | -112.17974 | 37313 ft | 429 kts | 210° |
| 2026-04-21 02:56 | 38.97891 | -112.21749 | 37926 ft | 428 kts | 210° |
| 2026-04-21 02:56 | 38.95302 | -112.23627 | 38035 ft | 427 kts | 210° |
| 2026-04-21 02:57 | 38.90128 | -112.27384 | 38045 ft | 427 kts | 210° |
| 2026-04-21 02:57 | 38.84954 | -112.31143 | 38038 ft | 427 kts | 210° |
| 2026-04-21 02:58 | 38.79783 | -112.34882 | 38028 ft | 427 kts | 210° |
| 2026-04-21 02:58 | 38.74602 | -112.38626 | 38016 ft | 427 kts | 210° |
| 2026-04-21 02:59 | 38.69422 | -112.42361 | 38008 ft | 427 kts | 210° |
| 2026-04-21 02:59 | 38.64242 | -112.46089 | 37995 ft | 427 kts | 209° |
| 2026-04-21 03:00 | 38.59082 | -112.49803 | 38014 ft | 425 kts | 209° |
| 2026-04-21 03:00 | 38.54804 | -112.52878 | 38015 ft | 423 kts | 209° |
| 2026-04-21 03:01 | 38.49679 | -112.56551 | 38022 ft | 422 kts | 209° |
| 2026-04-21 03:01 | 38.44561 | -112.60208 | 38019 ft | 421 kts | 209° |
| 2026-04-21 03:02 | 38.39458 | -112.63863 | 38023 ft | 421 kts | 209° |
| 2026-04-21 03:02 | 38.34356 | -112.67513 | 38024 ft | 420 kts | 209° |
| 2026-04-21 03:03 | 38.29249 | -112.71149 | 38028 ft | 420 kts | 209° |
| 2026-04-21 03:03 | 38.24147 | -112.74774 | 38016 ft | 420 kts | 209° |
| 2026-04-21 03:04 | 38.19046 | -112.78404 | 38006 ft | 420 kts | 209° |
| 2026-04-21 03:04 | 38.13943 | -112.82024 | 38012 ft | 420 kts | 208° |
| 2026-04-21 03:05 | 38.08845 | -112.85634 | 38005 ft | 419 kts | 208° |
| 2026-04-21 03:05 | 38.03760 | -112.89222 | 38004 ft | 418 kts | 208° |
| 2026-04-21 03:06 | 37.98671 | -112.92803 | 38010 ft | 418 kts | 208° |
| 2026-04-21 03:06 | 37.93594 | -112.96375 | 38032 ft | 418 kts | 208° |
| 2026-04-21 03:07 | 37.88516 | -112.99953 | 38066 ft | 417 kts | 208° |
| 2026-04-21 03:07 | 37.83434 | -113.03520 | 38091 ft | 417 kts | 208° |
| 2026-04-21 03:08 | 37.78358 | -113.07084 | 38113 ft | 417 kts | 208° |
| 2026-04-21 03:08 | 37.73318 | -113.10725 | 38117 ft | 417 kts | 210° |
| 2026-04-21 03:09 | 37.68316 | -113.14436 | 38126 ft | 416 kts | 210° |
| 2026-04-21 03:09 | 37.63327 | -113.18117 | 38121 ft | 415 kts | 209° |
| 2026-04-21 03:10 | 37.58336 | -113.21763 | 38097 ft | 414 kts | 209° |
| 2026-04-21 03:10 | 37.53346 | -113.25394 | 38067 ft | 414 kts | 209° |
| 2026-04-21 03:11 | 37.48367 | -113.29007 | 38040 ft | 413 kts | 209° |
| 2026-04-21 03:11 | 37.43385 | -113.32629 | 38001 ft | 413 kts | 209° |
| 2026-04-21 03:12 | 37.38413 | -113.36246 | 37984 ft | 413 kts | 209° |
| 2026-04-21 03:12 | 37.33442 | -113.39851 | 37957 ft | 412 kts | 209° |
| 2026-04-21 03:13 | 37.28483 | -113.43442 | 37960 ft | 412 kts | 209° |
| 2026-04-21 03:13 | 37.23526 | -113.47024 | 37980 ft | 410 kts | 209° |
| 2026-04-21 03:14 | 37.18582 | -113.50581 | 37986 ft | 409 kts | 209° |
| 2026-04-21 03:14 | 37.13664 | -113.54122 | 37988 ft | 408 kts | 209° |
| 2026-04-21 03:15 | 37.08746 | -113.57663 | 37993 ft | 407 kts | 209° |
| 2026-04-21 03:15 | 37.03839 | -113.61186 | 37991 ft | 406 kts | 209° |
| 2026-04-21 03:16 | 36.98931 | -113.64694 | 37986 ft | 406 kts | 209° |
| 2026-04-21 03:16 | 36.94023 | -113.68207 | 37970 ft | 406 kts | 209° |
| 2026-04-21 03:17 | 36.89124 | -113.71715 | 37944 ft | 406 kts | 208° |
| 2026-04-21 03:17 | 36.84227 | -113.75218 | 37942 ft | 405 kts | 209° |
| 2026-04-21 03:18 | 36.79333 | -113.78706 | 37927 ft | 405 kts | 208° |
| 2026-04-21 03:18 | 36.74442 | -113.82181 | 37919 ft | 404 kts | 208° |
| 2026-04-21 03:19 | 36.69561 | -113.85654 | 37920 ft | 404 kts | 208° |
| 2026-04-21 03:19 | 36.64680 | -113.89122 | 37903 ft | 403 kts | 208° |
| 2026-04-21 03:20 | 36.59807 | -113.92571 | 37898 ft | 403 kts | 208° |
| 2026-04-21 03:20 | 36.54927 | -113.96018 | 37898 ft | 403 kts | 208° |
| 2026-04-21 03:21 | 36.50046 | -113.99461 | 37892 ft | 403 kts | 208° |
| 2026-04-21 03:21 | 36.45163 | -114.02912 | 37878 ft | 403 kts | 208° |
| 2026-04-21 03:22 | 36.40281 | -114.06353 | 37870 ft | 403 kts | 208° |
| 2026-04-21 03:22 | 36.35402 | -114.09786 | 37871 ft | 403 kts | 209° |
| 2026-04-21 03:23 | 36.30513 | -114.13215 | 37869 ft | 404 kts | 209° |
| 2026-04-21 03:23 | 36.25626 | -114.16640 | 37855 ft | 404 kts | 209° |
| 2026-04-21 03:24 | 36.20724 | -114.20068 | 37856 ft | 404 kts | 209° |
| 2026-04-21 03:24 | 36.15831 | -114.23489 | 37856 ft | 404 kts | 209° |
| 2026-04-21 03:25 | 36.10935 | -114.26915 | 37857 ft | 405 kts | 210° |
| 2026-04-21 03:25 | 36.06593 | -114.31305 | 37844 ft | 406 kts | 227° |
| 2026-04-21 03:26 | 36.02843 | -114.36522 | 37844 ft | 406 kts | 227° |
| 2026-04-21 03:26 | 35.99074 | -114.41742 | 37852 ft | 407 kts | 227° |
| 2026-04-21 03:27 | 35.95309 | -114.46950 | 37872 ft | 406 kts | 227° |
| 2026-04-21 03:27 | 35.91542 | -114.52150 | 37882 ft | 406 kts | 227° |
| 2026-04-21 03:28 | 35.87773 | -114.57338 | 37896 ft | 406 kts | 227° |
| 2026-04-21 03:28 | 35.84005 | -114.62526 | 37860 ft | 406 kts | 227° |
| 2026-04-21 03:29 | 35.80240 | -114.67717 | 37916 ft | 406 kts | 227° |
| 2026-04-21 03:29 | 35.76468 | -114.72903 | 37916 ft | 406 kts | 227° |
| 2026-04-21 03:30 | 35.72698 | -114.78069 | 37955 ft | 406 kts | 227° |
| 2026-04-21 03:30 | 35.68925 | -114.83235 | 37956 ft | 405 kts | 227° |
| 2026-04-21 03:31 | 35.65152 | -114.88397 | 37959 ft | 405 kts | 227° |
| 2026-04-21 03:31 | 35.61379 | -114.93544 | 37956 ft | 405 kts | 227° |
| 2026-04-21 03:32 | 35.57610 | -114.98681 | 37952 ft | 405 kts | 227° |
| 2026-04-21 03:32 | 35.53841 | -115.03813 | 37982 ft | 404 kts | 227° |
| 2026-04-21 03:33 | 35.50078 | -115.08921 | 37980 ft | 403 kts | 227° |
| 2026-04-21 03:33 | 35.46270 | -115.13942 | 37977 ft | 402 kts | 226° |
| 2026-04-21 03:34 | 35.42429 | -115.18926 | 37955 ft | 395 kts | 226° |
| 2026-04-21 03:34 | 35.38668 | -115.23804 | 37957 ft | 392 kts | 226° |
| 2026-04-21 03:35 | 35.34927 | -115.28666 | 37962 ft | 392 kts | 226° |
| 2026-04-21 03:35 | 35.31191 | -115.33521 | 37973 ft | 392 kts | 226° |
| 2026-04-21 03:36 | 35.27500 | -115.38329 | 37955 ft | 389 kts | 226° |
| 2026-04-21 03:36 | 35.23784 | -115.43155 | 37957 ft | 389 kts | 226° |
| 2026-04-21 03:37 | 35.20058 | -115.47974 | 37960 ft | 390 kts | 226° |
| 2026-04-21 03:37 | 35.16335 | -115.52792 | 37947 ft | 390 kts | 226° |
| 2026-04-21 03:38 | 35.12609 | -115.57605 | 37935 ft | 390 kts | 226° |
| 2026-04-21 03:38 | 35.08881 | -115.62403 | 37932 ft | 391 kts | 226° |
| 2026-04-21 03:39 | 35.05108 | -115.67211 | 37913 ft | 392 kts | 225° |
| 2026-04-21 03:39 | 35.03215 | -115.69620 | 37782 ft | 395 kts | 225° |
| 2026-04-21 03:39 | 35.01315 | -115.72040 | 37494 ft | 394 kts | 225° |
| 2026-04-21 03:40 | 34.99414 | -115.74461 | 37225 ft | 395 kts | 225° |
| 2026-04-21 03:40 | 34.97514 | -115.76879 | 36945 ft | 396 kts | 225° |
| 2026-04-21 03:40 | 34.96226 | -115.78519 | 36767 ft | 397 kts | 225° |
| 2026-04-21 03:40 | 34.94316 | -115.80956 | 36509 ft | 398 kts | 225° |
| 2026-04-21 03:41 | 34.92395 | -115.83401 | 36245 ft | 399 kts | 225° |
| 2026-04-21 03:41 | 34.90476 | -115.85846 | 35992 ft | 400 kts | 226° |
| 2026-04-21 03:41 | 34.88547 | -115.88302 | 35742 ft | 401 kts | 225° |
| 2026-04-21 03:41 | 34.86640 | -115.90724 | 35487 ft | 402 kts | 225° |
| 2026-04-21 03:42 | 34.84670 | -115.93219 | 35239 ft | 403 kts | 225° |
| 2026-04-21 03:42 | 34.82729 | -115.95674 | 35003 ft | 404 kts | 225° |
| 2026-04-21 03:42 | 34.80778 | -115.98140 | 34766 ft | 403 kts | 225° |
| 2026-04-21 03:42 | 34.78853 | -116.00579 | 34501 ft | 397 kts | 226° |
| 2026-04-21 03:43 | 34.76936 | -116.03008 | 34257 ft | 401 kts | 226° |
| 2026-04-21 03:43 | 34.75048 | -116.05405 | 34025 ft | 397 kts | 226° |
| 2026-04-21 03:43 | 34.73113 | -116.07870 | 33847 ft | 396 kts | 226° |
| 2026-04-21 03:43 | 34.71215 | -116.10294 | 33865 ft | 396 kts | 226° |
| 2026-04-21 03:44 | 34.67414 | -116.15138 | 33872 ft | 396 kts | 226° |
| 2026-04-21 03:44 | 34.63600 | -116.19977 | 33871 ft | 396 kts | 226° |
| 2026-04-21 03:45 | 34.59788 | -116.24814 | 33868 ft | 396 kts | 226° |
| 2026-04-21 03:45 | 34.56008 | -116.29607 | 33578 ft | 389 kts | 226° |
| 2026-04-21 03:46 | 34.54142 | -116.31975 | 33213 ft | 386 kts | 226° |
| 2026-04-21 03:46 | 34.52288 | -116.34320 | 32749 ft | 384 kts | 225° |
| 2026-04-21 03:46 | 34.50442 | -116.36657 | 32288 ft | 382 kts | 225° |
| 2026-04-21 03:46 | 34.48610 | -116.38977 | 31837 ft | 381 kts | 225° |
| 2026-04-21 03:47 | 34.46782 | -116.41287 | 31372 ft | 379 kts | 225° |
| 2026-04-21 03:47 | 34.44956 | -116.43589 | 30941 ft | 378 kts | 225° |
| 2026-04-21 03:47 | 34.43133 | -116.45883 | 30504 ft | 377 kts | 225° |
| 2026-04-21 03:47 | 34.41505 | -116.48353 | 30075 ft | 378 kts | 236° |
| 2026-04-21 03:48 | 34.40256 | -116.51169 | 29626 ft | 378 kts | 241° |
| 2026-04-21 03:48 | 34.39093 | -116.54014 | 29204 ft | 376 kts | 241° |
| 2026-04-21 03:48 | 34.37933 | -116.56843 | 28805 ft | 374 kts | 241° |
| 2026-04-21 03:48 | 34.36778 | -116.59645 | 28407 ft | 371 kts | 241° |
| 2026-04-21 03:49 | 34.35628 | -116.62424 | 27998 ft | 368 kts | 241° |
| 2026-04-21 03:49 | 34.34490 | -116.65170 | 27902 ft | 361 kts | 241° |
| 2026-04-21 03:49 | 34.33369 | -116.67885 | 27916 ft | 361 kts | 241° |
| 2026-04-21 03:49 | 34.32252 | -116.70620 | 27929 ft | 368 kts | 241° |
| 2026-04-21 03:50 | 34.31098 | -116.73477 | 27901 ft | 383 kts | 242° |
| 2026-04-21 03:50 | 34.29918 | -116.76411 | 27065 ft | 393 kts | 242° |
| 2026-04-21 03:50 | 34.28727 | -116.79387 | 26559 ft | 390 kts | 242° |
| 2026-04-21 03:50 | 34.27567 | -116.82299 | 26293 ft | 381 kts | 242° |
| 2026-04-21 03:51 | 34.26420 | -116.85165 | 25916 ft | 376 kts | 241° |
| 2026-04-21 03:51 | 34.25282 | -116.87993 | 25537 ft | 373 kts | 241° |
| 2026-04-21 03:51 | 34.24144 | -116.90811 | 25137 ft | 371 kts | 241° |
| 2026-04-21 03:51 | 34.23017 | -116.93599 | 24741 ft | 368 kts | 241° |
| 2026-04-21 03:52 | 34.21896 | -116.96368 | 24344 ft | 366 kts | 241° |
| 2026-04-21 03:52 | 34.20875 | -116.99188 | 23969 ft | 366 kts | 248° |
| 2026-04-21 03:52 | 34.20086 | -117.02105 | 23569 ft | 364 kts | 248° |
| 2026-04-21 03:52 | 34.19305 | -117.04998 | 23106 ft | 362 kts | 249° |
| 2026-04-21 03:53 | 34.18525 | -117.07884 | 22681 ft | 360 kts | 248° |
| 2026-04-21 03:53 | 34.17751 | -117.10744 | 22250 ft | 357 kts | 248° |
| 2026-04-21 03:53 | 34.16980 | -117.13588 | 21792 ft | 355 kts | 248° |
| 2026-04-21 03:53 | 34.16225 | -117.16367 | 21348 ft | 352 kts | 248° |
| 2026-04-21 03:54 | 34.15457 | -117.19182 | 20735 ft | 347 kts | 248° |
| 2026-04-21 03:54 | 34.14699 | -117.21944 | 19946 ft | 344 kts | 248° |
| 2026-04-21 03:54 | 34.13947 | -117.24674 | 19193 ft | 340 kts | 248° |
| 2026-04-21 03:54 | 34.13203 | -117.27365 | 18459 ft | 337 kts | 247° |
| 2026-04-21 03:55 | 34.12464 | -117.30034 | 17655 ft | 333 kts | 248° |
| 2026-04-21 03:55 | 34.11733 | -117.32671 | 16866 ft | 329 kts | 248° |
| 2026-04-21 03:55 | 34.11021 | -117.35241 | 16367 ft | 327 kts | 248° |
| 2026-04-21 03:55 | 34.10294 | -117.37889 | 15928 ft | 327 kts | 249° |
| 2026-04-21 03:56 | 34.09617 | -117.40505 | 15519 ft | 326 kts | 250° |
| 2026-04-21 03:56 | 34.08967 | -117.43118 | 15099 ft | 324 kts | 250° |
| 2026-04-21 03:56 | 34.08323 | -117.45710 | 14696 ft | 322 kts | 250° |
| 2026-04-21 03:56 | 34.07679 | -117.48287 | 14323 ft | 319 kts | 250° |
| 2026-04-21 03:57 | 34.07040 | -117.50835 | 13925 ft | 315 kts | 250° |
| 2026-04-21 03:57 | 34.06412 | -117.53328 | 13505 ft | 313 kts | 250° |
| 2026-04-21 03:57 | 34.05773 | -117.55865 | 13060 ft | 312 kts | 250° |
| 2026-04-21 03:57 | 34.05147 | -117.58361 | 12627 ft | 310 kts | 250° |
| 2026-04-21 03:58 | 34.04536 | -117.60820 | 12205 ft | 310 kts | 251° |
| 2026-04-21 03:58 | 34.04072 | -117.63353 | 11997 ft | 311 kts | 255° |
| 2026-04-21 03:58 | 34.03668 | -117.65911 | 12011 ft | 313 kts | 256° |
| 2026-04-21 03:58 | 34.03281 | -117.68495 | 12018 ft | 312 kts | 256° |
| 2026-04-21 03:59 | 34.02904 | -117.71067 | 12018 ft | 312 kts | 256° |
| 2026-04-21 03:59 | 34.02525 | -117.73638 | 12047 ft | 312 kts | 256° |
| 2026-04-21 03:59 | 34.02141 | -117.76217 | 11919 ft | 313 kts | 256° |
| 2026-04-21 04:00 | 34.01349 | -117.81406 | 11002 ft | 309 kts | 256° |
| 2026-04-21 04:00 | 34.00958 | -117.83968 | 10611 ft | 306 kts | 256° |
| 2026-04-21 04:00 | 34.00574 | -117.86493 | 10223 ft | 305 kts | 256° |
| 2026-04-21 04:00 | 34.00197 | -117.88969 | 9816 ft | 304 kts | 256° |
| 2026-04-21 04:01 | 33.99808 | -117.91501 | 9352 ft | 303 kts | 256° |
| 2026-04-21 04:01 | 33.99424 | -117.93997 | 8925 ft | 302 kts | 256° |
| 2026-04-21 04:01 | 33.99048 | -117.96441 | 8500 ft | 300 kts | 256° |
| 2026-04-21 04:01 | 33.98666 | -117.98913 | 8075 ft | 299 kts | 257° |
| 2026-04-21 04:02 | 33.98285 | -118.01375 | 7652 ft | 299 kts | 257° |
| 2026-04-21 04:02 | 33.97895 | -118.03869 | 7076 ft | 304 kts | 257° |
| 2026-04-21 04:02 | 33.97513 | -118.06334 | 6997 ft | 297 kts | 258° |
| 2026-04-21 04:02 | 33.97439 | -118.08826 | 6996 ft | 299 kts | 277° |
| 2026-04-21 04:03 | 33.98151 | -118.11195 | 7020 ft | 305 kts | 300° |
| 2026-04-21 04:03 | 33.99598 | -118.13071 | 7085 ft | 310 kts | 323° |
| 2026-04-21 04:03 | 34.01516 | -118.14280 | 7136 ft | 312 kts | 332° |
| 2026-04-21 04:03 | 34.03238 | -118.15826 | 7187 ft | 308 kts | 308° |
| 2026-04-21 04:04 | 34.04257 | -118.18053 | 7236 ft | 303 kts | 283° |
| 2026-04-21 04:04 | 34.04392 | -118.20545 | 7288 ft | 297 kts | 257° |
| 2026-04-21 04:04 | 34.03720 | -118.22863 | 7336 ft | 288 kts | 243° |
| 2026-04-21 04:04 | 34.02868 | -118.24977 | 7332 ft | 274 kts | 241° |
| 2026-04-21 04:05 | 34.02026 | -118.27021 | 7058 ft | 271 kts | 241° |
| 2026-04-21 04:05 | 34.01185 | -118.29042 | 6740 ft | 269 kts | 241° |
| 2026-04-21 04:05 | 34.00343 | -118.31051 | 6417 ft | 268 kts | 241° |
| 2026-04-21 04:05 | 33.99495 | -118.33056 | 6068 ft | 268 kts | 241° |
| 2026-04-21 04:06 | 33.98597 | -118.35008 | 5737 ft | 265 kts | 231° |
| 2026-04-21 04:06 | 33.97199 | -118.36383 | 5422 ft | 261 kts | 204° |
| 2026-04-21 04:06 | 33.95428 | -118.36767 | 5092 ft | 261 kts | 175° |
| 2026-04-21 04:06 | 33.93670 | -118.36226 | 5036 ft | 263 kts | 162° |
| 2026-04-21 04:07 | 33.91937 | -118.35489 | 5037 ft | 265 kts | 161° |
| 2026-04-21 04:07 | 33.90197 | -118.34731 | 5036 ft | 265 kts | 161° |
| 2026-04-21 04:07 | 33.88458 | -118.33975 | 5037 ft | 267 kts | 161° |
| 2026-04-21 04:07 | 33.86714 | -118.33211 | 5036 ft | 266 kts | 161° |
| 2026-04-21 04:08 | 33.84977 | -118.32444 | 4994 ft | 265 kts | 161° |
| 2026-04-21 04:08 | 33.83253 | -118.31683 | 4678 ft | 264 kts | 161° |
| 2026-04-21 04:08 | 33.81524 | -118.30925 | 4325 ft | 264 kts | 161° |
| 2026-04-21 04:08 | 33.79800 | -118.30176 | 3993 ft | 262 kts | 160° |
| 2026-04-21 04:09 | 33.78089 | -118.29431 | 3667 ft | 262 kts | 161° |
| 2026-04-21 04:09 | 33.76376 | -118.28676 | 3317 ft | 262 kts | 161° |
| 2026-04-21 04:09 | 33.74665 | -118.27931 | 3046 ft | 260 kts | 159° |
| 2026-04-21 04:09 | 33.73157 | -118.26753 | 3010 ft | 263 kts | 132° |
| 2026-04-21 04:10 | 33.72298 | -118.24832 | 3005 ft | 265 kts | 104° |
| 2026-04-21 04:10 | 33.72275 | -118.22654 | 2725 ft | 263 kts | 77° |
| 2026-04-21 04:10 | 33.72779 | -118.20568 | 2602 ft | 265 kts | 72° |
| 2026-04-21 04:10 | 33.73362 | -118.18463 | 2602 ft | 266 kts | 71° |
| 2026-04-21 04:11 | 33.73955 | -118.16361 | 2604 ft | 266 kts | 71° |
| 2026-04-21 04:11 | 33.74676 | -118.14315 | 2601 ft | 267 kts | 55° |
| 2026-04-21 04:11 | 33.76025 | -118.12847 | 2627 ft | 263 kts | 25° |
| 2026-04-21 04:11 | 33.77783 | -118.12348 | 2599 ft | 262 kts | 356° |
| 2026-04-21 04:12 | 33.79554 | -118.12765 | 2626 ft | 254 kts | 342° |
| 2026-04-21 04:12 | 33.81189 | -118.13357 | 2623 ft | 238 kts | 341° |
| 2026-04-21 04:12 | 33.82722 | -118.13923 | 2624 ft | 223 kts | 341° |
| 2026-04-21 04:12 | 33.84189 | -118.14481 | 2630 ft | 221 kts | 341° |
| 2026-04-21 04:13 | 33.85653 | -118.15047 | 2629 ft | 221 kts | 343° |
| 2026-04-21 04:13 | 33.87172 | -118.15130 | 2624 ft | 221 kts | 15° |
| 2026-04-21 04:13 | 33.88472 | -118.14183 | 2628 ft | 223 kts | 49° |
| 2026-04-21 04:13 | 33.89219 | -118.12560 | 2635 ft | 223 kts | 68° |
| 2026-04-21 04:14 | 33.89755 | -118.10808 | 2628 ft | 223 kts | 71° |
| 2026-04-21 04:14 | 33.90264 | -118.09043 | 2629 ft | 224 kts | 71° |
| 2026-04-21 04:14 | 33.90772 | -118.07276 | 2629 ft | 223 kts | 71° |
| 2026-04-21 04:14 | 33.91274 | -118.05502 | 2626 ft | 225 kts | 71° |
| 2026-04-21 04:15 | 33.91882 | -118.03743 | 2623 ft | 225 kts | 53° |
| 2026-04-21 04:15 | 33.93059 | -118.02598 | 2628 ft | 222 kts | 19° |
| 2026-04-21 04:15 | 33.94578 | -118.02443 | 2627 ft | 217 kts | 344° |
| 2026-04-21 04:15 | 33.95842 | -118.03318 | 2628 ft | 215 kts | 310° |
| 2026-04-21 04:16 | 33.96485 | -118.04909 | 2631 ft | 215 kts | 282° |
| 2026-04-21 04:16 | 33.96715 | -118.06694 | 2629 ft | 215 kts | 274° |
| 2026-04-21 04:16 | 33.96702 | -118.08504 | 2604 ft | 217 kts | 265° |
| 2026-04-21 04:16 | 33.96551 | -118.10311 | 2606 ft | 217 kts | 263° |
| 2026-04-21 04:17 | 33.96372 | -118.12120 | 2607 ft | 217 kts | 262° |
| 2026-04-21 04:17 | 33.96196 | -118.13869 | 2615 ft | 203 kts | 262° |
| 2026-04-21 04:17 | 33.96033 | -118.15499 | 2623 ft | 191 kts | 262° |
| 2026-04-21 04:17 | 33.95875 | -118.17079 | 2653 ft | 188 kts | 262° |
| 2026-04-21 04:18 | 33.95720 | -118.18628 | 2640 ft | 185 kts | 262° |
| 2026-04-21 04:18 | 33.95576 | -118.20067 | 2637 ft | 186 kts | 263° |
| 2026-04-21 04:18 | 33.95420 | -118.21618 | 2635 ft | 186 kts | 263° |
| 2026-04-21 04:18 | 33.95264 | -118.23171 | 2532 ft | 184 kts | 262° |
| 2026-04-21 04:19 | 33.95116 | -118.24638 | 2337 ft | 170 kts | 262° |
| 2026-04-21 04:19 | 33.94981 | -118.25987 | 2124 ft | 158 kts | 262° |
| 2026-04-21 04:19 | 33.94851 | -118.27269 | 1928 ft | 154 kts | 262° |
| 2026-04-21 04:19 | 33.94725 | -118.28517 | 1747 ft | 149 kts | 261° |
| 2026-04-21 04:20 | 33.94600 | -118.29751 | 1536 ft | 145 kts | 262° |
| 2026-04-21 04:20 | 33.94479 | -118.30950 | 1336 ft | 145 kts | 262° |
| 2026-04-21 04:20 | 33.94357 | -118.32154 | 1142 ft | 144 kts | 262° |
| 2026-04-21 04:20 | 33.94235 | -118.33355 | 954 ft | 144 kts | 261° |
| 2026-04-21 04:21 | 33.94114 | -118.34548 | 759 ft | 144 kts | 261° |
| 2026-04-21 04:21 | 33.93992 | -118.35751 | 574 ft | 145 kts | 263° |
| 2026-04-21 04:21 | 33.93864 | -118.36953 | 381 ft | 145 kts | 264° |
| 2026-04-21 04:21 | 33.93747 | -118.38169 | 209 ft | 144 kts | 263° |
| 2026-04-21 04:22 | 33.93631 | -118.39326 | 110 ft | 125 kts | 263° |
| 2026-04-21 04:22 | 33.93572 | -118.39901 | 112 ft | 74 kts | 263° |
| 2026-04-21 04:22 | 33.93525 | -118.40360 | 112 ft | 31 kts | 265° |
| 2026-04-21 04:22 | 33.93515 | -118.40458 | 95 ft | 0 kts | 253° |